createdAt,value
2024-05-09T00:01:52.538Z,15.90
2024-05-09T00:04:22.840Z,16.00
2024-05-09T00:06:53.318Z,16.00
2024-05-09T00:09:23.544Z,16.00
2024-05-09T00:11:56.805Z,16.10
2024-05-09T00:14:27.380Z,16.10
2024-05-09T00:16:57.751Z,16.10
2024-05-09T00:19:28.197Z,16.20
2024-05-09T00:21:59.045Z,16.10
2024-05-09T00:24:29.368Z,16.20
2024-05-09T00:27:02.286Z,16.20
2024-05-09T00:29:33.318Z,16.20
2024-05-09T00:32:03.818Z,16.20
2024-05-09T00:34:34.463Z,16.20
2024-05-09T00:37:04.696Z,16.10
2024-05-09T00:39:34.968Z,16.10
2024-05-09T00:42:08.575Z,16.10
2024-05-09T00:44:39.170Z,16.10
2024-05-09T00:47:10.524Z,16.10
2024-05-09T00:49:41.649Z,16.00
2024-05-09T00:52:13.244Z,16.00
2024-05-09T00:54:43.552Z,16.00
2024-05-09T00:57:16.935Z,15.90
2024-05-09T00:59:47.549Z,15.90
2024-05-09T01:02:19.772Z,15.90
2024-05-09T01:04:50.259Z,15.90
2024-05-09T01:07:20.645Z,15.90
2024-05-09T01:09:50.919Z,15.80
2024-05-09T01:12:24.783Z,15.80
2024-05-09T01:14:55.368Z,15.60
2024-05-09T01:17:25.871Z,15.50
2024-05-09T01:19:56.305Z,15.40
2024-05-09T01:22:30.116Z,15.40
2024-05-09T01:25:02.956Z,15.30
2024-05-09T01:27:34.382Z,15.30
2024-05-09T01:30:09.157Z,15.30
2024-05-09T01:32:39.912Z,15.30
2024-05-09T01:35:10.845Z,15.20
2024-05-09T01:37:41.082Z,15.20
2024-05-09T01:40:18.586Z,15.20
2024-05-09T01:42:52.583Z,15.20
2024-05-09T01:45:22.864Z,15.10
2024-05-09T01:47:53.298Z,15.10
2024-05-09T01:50:35.734Z,15.00
2024-05-09T01:53:09.631Z,15.00
2024-05-09T01:55:43.041Z,15.00
2024-05-09T01:58:13.559Z,15.00
2024-05-09T02:00:44.053Z,15.00
2024-05-09T02:03:17.635Z,15.00
2024-05-09T02:05:50.193Z,14.90
2024-05-09T02:08:22.658Z,14.80
2024-05-09T02:10:55.804Z,14.80
2024-05-09T02:13:26.054Z,14.80
2024-05-09T02:15:56.282Z,14.80
2024-05-09T02:18:26.473Z,14.70
2024-05-09T02:20:56.816Z,14.70
2024-05-09T02:23:27.103Z,14.70
2024-05-09T02:26:00.263Z,14.70
2024-05-09T02:28:30.969Z,14.70
2024-05-09T02:31:01.524Z,14.70
2024-05-09T02:33:31.925Z,14.70
2024-05-09T02:36:02.316Z,14.70
2024-05-09T02:38:29.972Z,14.70
2024-05-09T02:41:02.971Z,14.70
2024-05-09T02:43:30.638Z,14.70
2024-05-09T02:46:00.884Z,14.70
2024-05-09T02:48:28.560Z,14.70
2024-05-09T02:50:58.922Z,14.80
2024-05-09T02:53:26.758Z,14.80
2024-05-09T02:55:57.291Z,14.90
2024-05-09T02:58:27.594Z,14.90
2024-05-09T03:00:57.904Z,14.80
2024-05-09T03:03:25.979Z,14.80
2024-05-09T03:05:56.472Z,14.70
2024-05-09T03:08:24.224Z,14.60
2024-05-09T03:10:54.417Z,14.60
2024-05-09T03:13:22.096Z,14.50
2024-05-09T03:15:54.945Z,14.50
2024-05-09T03:18:22.747Z,14.50
2024-05-09T03:20:53.086Z,14.50
2024-05-09T03:23:20.812Z,14.40
2024-05-09T03:25:51.100Z,14.40
2024-05-09T03:28:18.624Z,14.30
2024-05-09T03:30:48.800Z,14.30
2024-05-09T03:33:20.433Z,14.30
2024-05-09T03:35:51.566Z,14.20
2024-05-09T03:38:21.916Z,14.30
2024-05-09T03:40:53.086Z,14.30
2024-05-09T03:43:23.401Z,14.30
2024-05-09T03:45:53.551Z,14.30
2024-05-09T03:48:23.945Z,14.30
2024-05-09T03:50:54.303Z,14.30
2024-05-09T03:53:22.977Z,14.30
2024-05-09T03:55:53.392Z,14.30
2024-05-09T03:58:21.048Z,14.30
2024-05-09T04:00:51.351Z,14.40
2024-05-09T04:03:19.579Z,14.40
2024-05-09T04:05:52.638Z,14.40
2024-05-09T04:08:20.348Z,14.50
2024-05-09T04:10:50.733Z,14.50
2024-05-09T04:13:18.399Z,14.50
2024-05-09T04:15:48.573Z,14.50
2024-05-09T04:18:17.908Z,14.40
2024-05-09T04:20:50.921Z,14.50
2024-05-09T04:23:18.578Z,14.50
2024-05-09T04:25:49.046Z,14.50
2024-05-09T04:28:16.720Z,14.60
2024-05-09T04:30:46.945Z,14.60
2024-05-09T04:33:15.370Z,14.60
2024-05-09T04:35:46.108Z,14.70
2024-05-09T04:38:16.490Z,14.80
2024-05-09T04:40:46.950Z,14.80
2024-05-09T04:43:18.645Z,14.90
2024-05-09T04:45:49.197Z,14.90
2024-05-09T04:48:17.226Z,15.00
2024-05-09T04:50:47.759Z,15.00
2024-05-09T04:53:18.788Z,15.10
2024-05-09T04:55:49.379Z,15.10
2024-05-09T04:58:17.019Z,15.10
2024-05-09T05:00:47.639Z,15.10
2024-05-09T05:03:16.491Z,15.20
2024-05-09T05:05:47.917Z,15.20
2024-05-09T05:08:19.455Z,15.20
2024-05-09T05:10:50.694Z,15.20
2024-05-09T05:13:23.737Z,15.20
2024-05-09T05:15:58.216Z,15.30
2024-05-09T05:18:27.845Z,15.30
2024-05-09T05:20:59.615Z,15.30
2024-05-09T05:23:30.001Z,15.40
2024-05-09T05:26:00.569Z,15.40
2024-05-09T05:28:28.323Z,15.40
2024-05-09T05:30:58.588Z,15.40
2024-05-09T05:33:26.356Z,15.40
2024-05-09T05:35:57.342Z,15.40
2024-05-09T05:38:28.072Z,15.50
2024-05-09T05:41:01.629Z,15.50
2024-05-09T05:43:29.731Z,15.50
2024-05-09T05:45:59.935Z,15.60
2024-05-09T05:48:27.684Z,15.60
2024-05-09T05:50:58.996Z,15.60
2024-05-09T05:53:27.610Z,15.60
2024-05-09T05:56:00.590Z,15.60
2024-05-09T05:58:28.182Z,15.70
2024-05-09T06:00:58.439Z,15.70
2024-05-09T06:03:26.252Z,15.70
2024-05-09T06:05:56.587Z,15.80
2024-05-09T06:08:27.172Z,15.80
2024-05-09T06:11:02.060Z,15.80
2024-05-09T06:13:32.291Z,15.80
2024-05-09T06:16:00.824Z,15.80
2024-05-09T06:18:31.288Z,15.90
2024-05-09T06:20:59.150Z,15.90
2024-05-09T06:23:29.393Z,15.90
2024-05-09T06:25:59.706Z,15.90
2024-05-09T06:28:30.017Z,15.90
2024-05-09T06:30:57.544Z,16.00
2024-05-09T06:33:28.052Z,16.00
2024-05-09T06:35:59.391Z,16.00
2024-05-09T06:38:29.800Z,16.00
2024-05-09T06:41:00.344Z,16.00
2024-05-09T06:43:30.606Z,16.00
2024-05-09T06:45:58.471Z,16.10
2024-05-09T06:48:29.479Z,16.10
2024-05-09T06:50:57.243Z,16.20
2024-05-09T06:53:27.554Z,16.20
2024-05-09T06:55:55.467Z,16.20
2024-05-09T06:58:28.395Z,16.20
2024-05-09T07:00:56.034Z,16.30
2024-05-09T07:03:26.534Z,16.30
2024-05-09T07:05:54.313Z,16.30
2024-05-09T07:08:24.595Z,16.40
2024-05-09T07:10:52.424Z,16.40
2024-05-09T07:13:23.230Z,16.50
2024-05-09T07:15:53.485Z,16.50
2024-05-09T07:18:23.816Z,16.60
2024-05-09T07:20:51.615Z,16.70
2024-05-09T07:23:21.949Z,16.70
2024-05-09T07:25:49.712Z,16.70
2024-05-09T07:28:22.277Z,16.80
2024-05-09T07:30:52.540Z,16.80
2024-05-09T07:33:24.883Z,16.80
2024-05-09T07:35:53.072Z,16.90
2024-05-09T07:38:24.249Z,16.90
2024-05-09T07:40:51.920Z,17.00
2024-05-09T07:43:22.304Z,16.90
2024-05-09T07:45:54.871Z,17.00
2024-05-09T07:50:00.616Z,17.00
2024-05-09T07:53:52.394Z,17.10
2024-05-09T07:56:23.944Z,17.10
2024-05-09T07:58:56.484Z,17.10
2024-05-09T08:01:27.574Z,17.10
2024-05-09T08:03:58.661Z,17.20
2024-05-09T08:06:26.934Z,17.30
2024-05-09T08:09:02.812Z,17.40
2024-05-09T08:11:33.166Z,17.40
2024-05-09T08:14:03.825Z,17.50
2024-05-09T08:16:34.141Z,17.50
2024-05-09T08:19:04.494Z,17.50
2024-05-09T08:21:32.263Z,17.50
2024-05-09T08:24:02.989Z,17.50
2024-05-09T08:26:30.662Z,17.50
2024-05-09T09:44:32.919Z,15.00
2024-05-09T09:47:02.337Z,15.30
2024-05-09T09:49:36.843Z,15.40
2024-05-09T09:52:07.618Z,15.40
2024-05-09T09:54:39.259Z,15.40
2024-05-09T09:57:08.739Z,15.40
2024-05-09T09:59:46.407Z,15.40
2024-05-09T10:02:14.422Z,15.30
2024-05-09T10:04:44.958Z,15.20
2024-05-09T10:07:14.753Z,15.20
2024-05-09T10:09:45.488Z,15.20
2024-05-09T10:12:15.349Z,15.20
2024-05-09T10:14:52.757Z,15.10
2024-05-09T10:17:21.137Z,15.10
2024-05-09T10:19:51.663Z,15.00
2024-05-09T10:22:28.309Z,15.00
2024-05-09T10:25:09.511Z,15.00
2024-05-09T10:42:13.241Z,15.10
2024-05-09T10:44:42.517Z,15.60
2024-05-09T10:47:13.139Z,15.70
2024-05-09T10:49:40.926Z,15.80
2024-05-09T10:52:11.402Z,15.90
2024-05-09T10:54:39.926Z,16.00
2024-05-09T10:57:12.945Z,16.10
2024-05-09T10:59:42.589Z,16.20
2024-05-09T11:02:14.950Z,16.30
2024-05-09T11:04:45.169Z,16.40
2024-05-09T11:07:18.238Z,16.50
2024-05-09T11:09:46.636Z,16.60
2024-05-09T11:12:22.844Z,16.80
2024-05-09T11:14:54.331Z,17.00
2024-05-09T11:17:24.729Z,17.00
2024-05-09T11:19:52.462Z,17.10
2024-05-09T11:22:25.144Z,17.30
2024-05-09T11:24:54.865Z,17.30
2024-05-09T11:27:28.033Z,17.40
2024-05-09T11:29:55.601Z,17.40
2024-05-09T11:32:33.103Z,17.40
2024-05-09T11:35:00.944Z,17.60
2024-05-09T11:37:36.042Z,17.80
2024-05-09T11:40:11.440Z,17.90
2024-05-09T11:42:48.748Z,17.90
2024-05-09T11:45:18.491Z,17.90
2024-05-09T11:47:49.640Z,17.90
2024-05-09T11:50:26.775Z,17.90
2024-05-09T11:53:00.834Z,17.80
2024-05-09T11:55:29.105Z,17.60
2024-05-09T11:58:03.222Z,17.90
2024-05-09T12:00:36.644Z,18.00
2024-05-09T12:03:09.241Z,17.90
2024-05-09T12:05:36.910Z,17.80
2024-05-09T12:08:08.158Z,17.80
2024-05-09T12:10:36.972Z,17.70
2024-05-09T12:13:10.729Z,17.60
2024-05-09T12:15:39.257Z,17.60
2024-05-09T12:18:10.378Z,17.70
2024-05-09T12:20:39.907Z,17.80
2024-05-09T12:23:12.112Z,17.80
2024-05-09T12:25:40.403Z,17.80
2024-05-09T12:28:14.033Z,17.70
2024-05-09T12:30:42.089Z,17.60
2024-05-09T12:33:13.997Z,17.60
2024-05-09T12:35:44.615Z,17.60
2024-05-09T12:38:17.906Z,17.60
2024-05-09T12:40:45.656Z,17.60
2024-05-09T12:43:18.996Z,17.60
2024-05-09T12:45:46.847Z,17.70
2024-05-09T12:48:17.614Z,17.70
2024-05-09T12:50:45.492Z,17.70
2024-05-09T12:53:16.353Z,17.70
2024-05-09T12:55:53.279Z,17.70
2024-05-09T12:58:30.365Z,17.60
2024-05-09T13:00:58.231Z,17.40
2024-05-09T13:03:29.203Z,17.30
2024-05-09T13:05:57.147Z,17.40
2024-05-09T13:08:27.934Z,17.30
2024-05-09T13:10:55.992Z,17.30
2024-05-09T13:13:29.343Z,17.40
2024-05-09T13:15:57.221Z,17.30
2024-05-09T13:18:28.305Z,17.40
2024-05-09T13:20:56.009Z,17.40
2024-05-09T13:23:26.541Z,17.40
2024-05-09T13:25:54.223Z,17.40
2024-05-09T13:28:25.035Z,17.40
2024-05-09T13:30:55.737Z,17.40
2024-05-09T13:33:26.440Z,17.30
2024-05-09T13:35:54.170Z,17.20
2024-05-09T13:38:24.860Z,17.00
2024-05-09T13:40:52.812Z,16.90
2024-05-09T13:43:25.619Z,16.90
2024-05-09T13:45:57.600Z,16.80
2024-05-09T13:48:28.782Z,16.60
2024-05-09T13:50:57.503Z,16.60
2024-05-09T13:53:27.818Z,16.40
2024-05-09T13:55:55.563Z,16.30
2024-05-09T13:58:26.396Z,16.20
2024-05-09T14:00:57.109Z,16.10
2024-05-09T14:03:30.111Z,15.90
2024-05-09T14:05:58.334Z,15.90
2024-05-09T14:08:29.169Z,15.90
2024-05-09T14:10:57.068Z,15.80
2024-05-09T14:13:27.292Z,15.60
2024-05-09T14:15:57.872Z,15.60
2024-05-09T14:18:28.791Z,15.50
2024-05-09T14:20:56.527Z,15.50
2024-05-09T14:23:26.981Z,15.40
2024-05-09T14:25:54.599Z,15.30
2024-05-09T14:28:27.097Z,15.20
2024-05-09T14:30:57.684Z,15.20
2024-05-09T14:33:28.329Z,15.10
2024-05-09T14:35:56.249Z,15.00
2024-05-09T14:38:26.918Z,14.90
2024-05-09T14:40:54.695Z,14.80
2024-05-09T14:43:25.475Z,14.70
2024-05-09T14:45:53.778Z,14.70
2024-05-09T14:48:27.233Z,14.50
2024-05-09T14:50:54.912Z,14.50
2024-05-09T14:53:26.597Z,14.50
2024-05-09T14:55:54.601Z,14.50
2024-05-09T14:58:25.113Z,14.40
2024-05-09T15:00:53.191Z,14.40
2024-05-09T15:03:27.332Z,14.30
2024-05-09T15:05:55.204Z,14.20
2024-05-09T15:08:25.933Z,14.30
2024-05-09T15:10:53.721Z,14.30
2024-05-09T15:13:24.729Z,14.30
2024-05-09T15:15:52.601Z,14.30
2024-05-09T15:18:23.432Z,14.30
2024-05-09T15:20:57.070Z,14.20
2024-05-09T15:23:24.771Z,14.20
2024-05-09T15:25:54.974Z,14.10
2024-05-09T15:28:23.359Z,14.10
2024-05-09T15:30:55.230Z,14.00
2024-05-09T15:33:24.052Z,14.00
2024-05-09T15:35:57.427Z,13.90
2024-05-09T15:38:26.556Z,13.80
2024-05-09T15:40:57.323Z,13.80
2024-05-09T15:43:25.518Z,13.70
2024-05-09T15:45:56.508Z,13.70
2024-05-09T15:48:24.579Z,13.60
2024-05-09T15:50:57.751Z,13.60
2024-05-09T15:53:25.450Z,13.60
2024-05-09T15:55:55.859Z,13.50
2024-05-09T15:58:24.220Z,13.50
2024-05-09T16:00:54.893Z,13.40
2024-05-09T16:03:22.680Z,13.40
2024-05-09T16:05:57.820Z,13.30
2024-05-09T16:08:25.695Z,13.30
2024-05-09T16:10:56.500Z,13.30
2024-05-09T16:13:24.573Z,13.30
2024-05-09T16:15:55.313Z,13.30
2024-05-09T16:18:25.620Z,13.30
2024-05-09T16:21:00.386Z,13.20
2024-05-09T16:23:28.800Z,13.10
2024-05-09T16:26:00.796Z,13.10
2024-05-09T16:28:28.611Z,13.10
2024-05-09T16:31:01.506Z,13.10
2024-05-09T16:33:29.901Z,13.10
2024-05-09T16:36:04.016Z,13.00
2024-05-09T16:38:31.984Z,13.00
2024-05-09T16:41:02.476Z,12.90
2024-05-09T16:43:30.193Z,12.80
2024-05-09T16:46:00.947Z,12.80
2024-05-09T16:48:28.722Z,12.80
2024-05-09T16:50:59.085Z,12.70
2024-05-09T16:53:29.437Z,12.70
2024-05-09T16:55:59.940Z,12.70
2024-05-09T16:58:27.691Z,12.70
2024-05-09T17:00:58.148Z,12.70
2024-05-09T17:03:25.958Z,12.70
2024-05-09T17:05:56.810Z,12.70
2024-05-09T17:08:24.618Z,12.60
2024-05-09T17:10:57.852Z,12.60
2024-05-09T17:13:25.896Z,12.60
2024-05-09T17:15:56.385Z,12.60
2024-05-09T17:18:28.364Z,12.60
2024-05-09T17:20:56.122Z,12.50
2024-05-09T17:23:26.611Z,12.50
2024-05-09T17:26:00.379Z,12.50
2024-05-09T17:28:28.356Z,12.50
2024-05-09T17:30:58.667Z,12.40
2024-05-09T17:33:26.635Z,12.30
2024-05-09T17:35:57.245Z,12.40
2024-05-09T17:38:26.501Z,12.40
2024-05-09T17:40:59.926Z,12.40
2024-05-09T17:43:28.280Z,12.40
2024-05-09T17:45:59.111Z,12.30
2024-05-09T17:48:26.930Z,12.30
2024-05-09T17:50:57.355Z,12.30
2024-05-09T17:53:25.195Z,12.20
2024-05-09T17:56:00.472Z,12.20
2024-05-09T17:58:28.470Z,12.20
2024-05-09T18:00:59.312Z,12.10
2024-05-09T18:03:28.895Z,12.10
2024-05-09T18:05:59.934Z,12.00
2024-05-09T18:08:27.720Z,12.00
2024-05-09T18:11:01.234Z,11.90
2024-05-09T18:13:29.156Z,12.00
2024-05-09T18:16:00.870Z,11.90
2024-05-09T18:18:28.771Z,11.90
2024-05-09T18:20:59.136Z,11.90
2024-05-09T18:23:26.866Z,12.00
2024-05-09T18:26:00.179Z,12.00
2024-05-09T18:28:28.286Z,11.90
2024-05-09T18:30:59.194Z,11.90
2024-05-09T18:33:27.020Z,12.00
2024-05-09T18:35:57.680Z,12.00
2024-05-09T18:38:27.041Z,11.90
2024-05-09T18:41:00.645Z,11.90
2024-05-09T18:43:38.013Z,11.90
2024-05-09T18:46:12.783Z,11.80
2024-05-09T18:48:40.630Z,11.80
2024-05-09T18:51:11.569Z,11.80
2024-05-09T18:53:39.871Z,11.80
2024-05-09T18:56:14.296Z,11.70
2024-05-09T18:58:44.482Z,11.70
2024-05-09T19:01:12.439Z,11.70
2024-05-09T19:03:43.467Z,11.70
2024-05-09T19:06:11.587Z,11.70
2024-05-09T19:08:41.762Z,11.70
2024-05-09T19:11:12.280Z,11.70
2024-05-09T19:13:42.592Z,11.60
2024-05-09T19:16:10.313Z,11.60
2024-05-09T19:18:40.858Z,11.60
2024-05-09T19:21:09.070Z,11.60
2024-05-09T19:23:46.822Z,11.50
2024-05-09T19:26:24.300Z,11.40
2024-05-09T19:28:53.116Z,11.40
2024-05-09T19:31:23.855Z,11.40
2024-05-09T19:33:51.868Z,11.30
2024-05-09T19:36:22.734Z,11.30
2024-05-09T19:38:51.698Z,11.30
2024-05-09T19:41:25.347Z,11.30
2024-05-09T19:43:53.003Z,11.30
2024-05-09T19:46:23.856Z,11.30
2024-05-09T19:48:52.140Z,11.30
2024-05-09T19:51:22.577Z,11.30
2024-05-09T19:53:50.922Z,11.30
2024-05-09T19:56:25.181Z,11.40
2024-05-09T19:58:52.970Z,11.40
2024-05-09T20:01:23.399Z,11.40
2024-05-09T20:03:51.309Z,11.30
2024-05-09T20:06:24.502Z,11.30
2024-05-09T20:08:53.793Z,11.30
2024-05-09T20:11:27.913Z,11.40
2024-05-09T20:13:57.004Z,11.40
2024-05-09T20:16:27.794Z,11.30
2024-05-09T20:18:55.673Z,11.30
2024-05-09T20:21:26.044Z,11.30
2024-05-09T20:23:54.566Z,11.40
2024-05-09T20:26:29.946Z,11.30
2024-05-09T20:28:58.489Z,11.40
2024-05-09T20:31:29.199Z,11.30
2024-05-09T20:33:56.990Z,11.30
2024-05-09T20:36:27.222Z,11.30
2024-05-09T20:38:54.748Z,11.30
2024-05-09T20:41:28.090Z,11.30
2024-05-09T20:43:58.173Z,11.30
2024-05-09T20:46:28.758Z,11.30
2024-05-09T20:48:56.634Z,11.30
2024-05-09T20:51:27.675Z,11.20
2024-05-09T20:53:56.198Z,11.20
2024-05-09T20:56:29.217Z,11.20
2024-05-09T20:58:57.470Z,11.20
2024-05-09T21:01:27.980Z,11.20
2024-05-09T21:03:55.864Z,11.10
2024-05-09T21:06:26.276Z,11.10
2024-05-09T21:08:53.950Z,11.10
2024-05-09T21:11:25.279Z,11.10
2024-05-09T21:13:55.597Z,11.10
2024-05-09T21:16:26.026Z,11.00
2024-05-09T21:18:53.883Z,11.00
2024-05-09T21:21:24.482Z,11.00
2024-05-09T21:23:52.106Z,11.00
2024-05-09T21:26:23.923Z,11.00
2024-05-09T21:28:51.637Z,11.00
2024-05-09T21:31:24.538Z,11.10
2024-05-09T21:33:52.292Z,11.10
2024-05-09T21:36:22.926Z,11.10
2024-05-09T21:38:50.502Z,11.20
2024-05-09T21:41:21.387Z,11.20
2024-05-09T21:43:48.964Z,11.20
2024-05-09T21:46:19.614Z,11.20
2024-05-09T21:48:50.110Z,11.30
2024-05-09T21:51:21.214Z,11.30
2024-05-09T21:53:49.290Z,11.30
2024-05-09T21:56:19.758Z,11.30
2024-05-09T21:58:47.397Z,11.30
2024-05-09T22:01:17.812Z,11.30
2024-05-09T22:03:45.641Z,11.30
2024-05-09T22:06:18.644Z,11.30
2024-05-09T22:08:46.205Z,11.20
2024-05-09T22:11:16.895Z,11.30
2024-05-09T22:13:44.584Z,11.30
2024-05-09T22:16:14.968Z,11.30
2024-05-09T22:18:42.841Z,11.30
2024-05-09T22:21:13.190Z,11.30
2024-05-09T22:23:43.602Z,11.40
2024-05-09T22:26:14.075Z,11.40
2024-05-09T22:28:41.616Z,11.40
2024-05-09T22:31:12.500Z,11.40
2024-05-09T22:33:41.441Z,11.40
2024-05-09T22:36:12.851Z,11.40
2024-05-09T22:38:43.086Z,11.40
2024-05-09T22:41:13.386Z,11.40
2024-05-09T22:43:41.168Z,11.40
2024-05-09T22:46:11.736Z,11.40
2024-05-09T22:48:39.670Z,11.40
2024-05-09T22:51:10.021Z,11.30
2024-05-09T22:53:37.625Z,11.30
2024-05-09T22:56:11.197Z,11.30
2024-05-09T22:58:38.895Z,11.40
2024-05-09T23:01:09.369Z,11.40
2024-05-09T23:03:39.649Z,11.40
2024-05-09T23:06:10.996Z,11.40
2024-05-09T23:08:38.729Z,11.40
2024-05-09T23:11:12.175Z,11.40
2024-05-09T23:13:39.870Z,11.40
2024-05-09T23:16:10.608Z,11.40
2024-05-09T23:18:38.316Z,11.40
2024-05-09T23:21:09.135Z,11.40
2024-05-09T23:23:36.832Z,11.40
2024-05-09T23:26:07.368Z,11.30
2024-05-09T23:28:37.763Z,11.30
2024-05-09T23:31:08.478Z,11.30
2024-05-09T23:33:36.227Z,11.30
2024-05-09T23:36:07.145Z,11.40
2024-05-09T23:38:34.790Z,11.30
2024-05-09T23:41:05.069Z,11.30
2024-05-09T23:43:33.169Z,11.30
2024-05-09T23:46:06.048Z,11.30
2024-05-09T23:48:34.050Z,11.20
2024-05-09T23:51:04.424Z,11.20
2024-05-09T23:53:32.048Z,11.10
2024-05-09T23:56:02.482Z,11.10
2024-05-09T23:58:31.484Z,11.00
